Time;durP1;ratioP1;P1;durP2;ratioP2;P2;SDS_P1;SDS_P2;PMS_P1;PMS_P2;Temp;Humidity;BMP_temperature;BMP_pressure;BME280_temperature;BME280_humidity;BME280_pressure;Samples;Min_cycle;Max_cycle;Signal;HPM_P1;HPM_P2
2023/06/13 00:00:10;;;;;;;0.57;0.57;;;;;;;20.44;100.00;98907.81;5071572;28;20239;-67
2023/06/13 00:02:38;;;;;;;0.63;0.63;;;;;;;20.43;100.00;98909.59;5071130;28;20232;-68
2023/06/13 00:05:06;;;;;;;0.33;0.33;;;;;;;20.44;100.00;98913.03;5071562;28;20227;-67
2023/06/13 00:07:37;;;;;;;0.60;0.60;;;;;;;20.41;100.00;98910.66;5071285;28;20674;-67
2023/06/13 00:10:07;;;;;;;0.50;0.50;;;;;;;20.45;100.00;98906.03;5071873;28;20584;-67
2023/06/13 00:12:34;;;;;;;0.57;0.57;;;;;;;20.47;100.00;98899.75;5070458;28;20211;-68
2023/06/13 00:15:02;;;;;;;0.57;0.57;;;;;;;20.53;100.00;98901.88;5071725;28;20229;-67
2023/06/13 00:17:29;;;;;;;0.67;0.60;;;;;;;20.55;100.00;98910.38;5071544;28;20195;-67
2023/06/13 00:19:56;;;;;;;0.37;0.37;;;;;;;20.58;100.00;98898.94;5071050;28;20220;-68
2023/06/13 00:22:24;;;;;;;0.50;0.50;;;;;;;20.60;100.00;98897.84;5070985;28;20204;-67
2023/06/13 00:24:51;;;;;;;0.47;0.47;;;;;;;20.62;100.00;98895.94;5067638;28;20263;-68
2023/06/13 00:27:19;;;;;;;0.70;0.70;;;;;;;20.67;100.00;98903.41;5070891;28;20619;-67
2023/06/13 00:29:46;;;;;;;0.40;0.40;;;;;;;20.70;100.00;98898.78;5071079;28;20660;-67
2023/06/13 00:32:12;;;;;;;0.50;0.50;;;;;;;20.73;100.00;98893.31;5070477;28;20203;-68
2023/06/13 00:34:40;;;;;;;0.80;0.80;;;;;;;20.76;100.00;98893.09;5070693;28;20274;-67
2023/06/13 00:37:09;;;;;;;0.50;0.50;;;;;;;20.79;100.00;98895.44;5070841;28;20318;-68
2023/06/13 00:39:36;;;;;;;0.60;0.60;;;;;;;20.75;100.00;98886.19;5070481;28;20773;-67
2023/06/13 00:42:07;;;;;;;0.40;0.40;;;;;;;20.85;100.00;98896.72;5070189;28;20260;-67
2023/06/13 00:44:35;;;;;;;0.53;0.53;;;;;;;20.85;100.00;98894.94;5068604;28;20223;-67
2023/06/13 00:47:03;;;;;;;0.50;0.50;;;;;;;20.87;100.00;98887.81;5071112;28;20202;-67
2023/06/13 00:49:31;;;;;;;0.73;0.73;;;;;;;20.91;100.00;98891.84;5069673;28;20199;-68
2023/06/13 00:52:01;;;;;;;0.57;0.57;;;;;;;20.91;100.00;98885.81;5069558;28;20204;-67
2023/06/13 00:54:29;;;;;;;0.73;0.50;;;;;;;20.97;100.00;98892.31;5070351;28;20208;-68
2023/06/13 00:56:56;;;;;;;0.70;0.70;;;;;;;20.99;100.00;98888.63;5070579;28;20661;-68
2023/06/13 00:59:23;;;;;;;0.60;0.60;;;;;;;20.98;100.00;98888.75;5070488;28;20583;-67
2023/06/13 01:01:52;;;;;;;0.67;0.67;;;;;;;20.85;100.00;98866.28;5070008;28;20211;-68
2023/06/13 01:04:19;;;;;;;0.70;0.70;;;;;;;20.88;100.00;98865.19;5069104;28;20210;-67
2023/06/13 01:06:46;;;;;;;0.73;0.73;;;;;;;20.95;100.00;98877.63;5070535;28;20629;-67
2023/06/13 01:09:16;;;;;;;0.50;0.50;;;;;;;20.82;100.00;98855.28;5070423;28;20703;-67
2023/06/13 01:11:52;;;;;;;0.57;0.57;;;;;;;20.94;100.00;98875.97;5070099;28;20195;-67
2023/06/13 01:14:27;;;;;;;0.40;0.40;;;;;;;20.93;100.00;98876.94;5068416;28;20260;-67
2023/06/13 01:17:03;;;;;;;0.53;0.53;;;;;;;20.88;100.00;98871.25;5070096;28;20226;-67
2023/06/13 01:19:37;;;;;;;0.63;0.63;;;;;;;20.87;100.00;98872.19;5068571;28;20279;-67
2023/06/13 01:22:09;;;;;;;0.60;0.60;;;;;;;20.83;100.00;98865.59;5070731;28;20294;-67
2023/06/13 01:24:43;;;;;;;0.70;0.70;;;;;;;20.86;100.00;98873.16;5068663;28;20631;-67
2023/06/13 01:27:14;;;;;;;0.50;0.50;;;;;;;20.79;100.00;98872.00;5069847;28;20237;-67
2023/06/13 01:29:42;;;;;;;0.47;0.47;;;;;;;20.74;100.00;98863.69;5070286;28;20203;-67
2023/06/13 01:32:09;;;;;;;0.63;0.63;;;;;;;20.72;100.00;98875.19;5069879;28;20213;-67
2023/06/13 01:34:37;;;;;;;0.40;0.40;;;;;;;20.70;100.00;98866.69;5068938;28;20218;-68
2023/06/13 01:37:04;;;;;;;0.80;0.80;;;;;;;20.72;100.00;98870.81;5067834;28;20269;-67
2023/06/13 01:39:34;;;;;;;0.50;0.50;;;;;;;20.73;100.00;98871.66;5070611;28;20226;-67
2023/06/13 01:42:01;;;;;;;0.60;0.60;;;;;;;20.74;100.00;98873.31;5069281;28;20610;-67
2023/06/13 01:44:29;;;;;;;0.47;0.47;;;;;;;20.71;100.00;98871.75;5067947;28;20701;-68
2023/06/13 01:47:06;;;;;;;0.60;0.60;;;;;;;20.68;100.00;98879.03;5069966;28;20199;-67
2023/06/13 01:49:40;;;;;;;0.50;0.50;;;;;;;20.62;100.00;98875.09;5069993;28;20202;-67
2023/06/13 01:52:15;;;;;;;0.53;0.53;;;;;;;20.61;100.00;98868.25;5070105;28;20277;-68
2023/06/13 01:54:48;;;;;;;0.57;0.57;;;;;;;20.60;100.00;98871.81;5069944;28;20218;-67
2023/06/13 01:57:17;;;;;;;0.50;0.50;;;;;;;20.55;100.00;98878.34;5068072;28;20204;-67
2023/06/13 01:59:51;;;;;;;0.53;0.53;;;;;;;20.50;100.00;98870.03;5069298;28;20223;-67
2023/06/13 02:02:18;;;;;;;0.60;0.60;;;;;;;20.40;100.00;98877.75;5070022;28;20199;-67
2023/06/13 02:04:45;;;;;;;0.73;0.73;;;;;;;20.11;100.00;98837.53;5067125;28;20203;-67
2023/06/13 02:07:11;;;;;;;0.50;0.50;;;;;;;20.32;100.00;98872.34;5069534;28;20202;-67
2023/06/13 02:09:38;;;;;;;0.70;0.70;;;;;;;20.35;100.00;98877.31;5067393;28;20248;-67
2023/06/13 02:12:06;;;;;;;0.50;0.50;;;;;;;20.24;100.00;98854.66;5070067;28;20200;-67
2023/06/13 02:14:33;;;;;;;0.40;0.40;;;;;;;20.32;100.00;98878.34;5069313;28;20208;-67
2023/06/13 02:17:01;;;;;;;0.43;0.43;;;;;;;20.31;100.00;98870.66;5069616;28;20634;-67
2023/06/13 02:19:29;;;;;;;0.70;0.70;;;;;;;20.26;100.00;98875.34;5069337;28;20224;-67
2023/06/13 02:21:56;;;;;;;0.37;0.37;;;;;;;20.20;100.00;98874.06;5069389;28;20218;-67
2023/06/13 02:24:23;;;;;;;0.43;0.43;;;;;;;20.09;100.00;98878.47;5067346;28;20328;-67
2023/06/13 02:26:50;;;;;;;0.83;0.83;;;;;;;19.93;100.00;98871.00;5068766;28;20198;-67
2023/06/13 02:29:18;;;;;;;0.60;0.60;;;;;;;19.90;100.00;98866.84;5071835;28;20281;-67
2023/06/13 02:31:45;;;;;;;0.50;0.50;;;;;;;19.92;100.00;98883.19;5072497;28;20227;-67
2023/06/13 02:34:13;;;;;;;0.60;0.60;;;;;;;19.91;100.00;98878.91;5072584;28;20243;-67
2023/06/13 02:36:40;;;;;;;0.47;0.47;;;;;;;19.87;100.00;98882.69;5072609;28;20207;-67
2023/06/13 02:39:08;;;;;;;0.40;0.40;;;;;;;19.90;100.00;98886.84;5072767;28;20290;-67
2023/06/13 02:41:35;;;;;;;0.67;0.67;;;;;;;19.85;100.00;98883.75;5071922;28;20213;-67
2023/06/13 02:44:02;;;;;;;0.40;0.40;;;;;;;19.88;100.00;98886.97;5072223;28;20226;-67
2023/06/13 02:46:28;;;;;;;1.00;1.00;;;;;;;19.89;100.00;98893.81;5072400;28;20237;-67
2023/06/13 02:48:56;;;;;;;0.67;0.67;;;;;;;19.81;100.00;98883.16;5072127;28;20203;-67
2023/06/13 02:51:24;;;;;;;0.60;0.60;;;;;;;19.84;100.00;98888.13;5070294;28;20204;-67
2023/06/13 02:53:51;;;;;;;0.50;0.50;;;;;;;19.88;100.00;98899.97;5071950;28;20234;-67
2023/06/13 02:56:17;;;;;;;0.70;0.70;;;;;;;19.78;100.00;98904.22;5072787;28;20205;-67
2023/06/13 02:58:44;;;;;;;0.50;0.50;;;;;;;19.70;100.00;98906.56;5071673;28;20210;-67
2023/06/13 03:01:12;;;;;;;0.70;0.70;;;;;;;19.64;100.00;98901.00;5071167;28;20202;-67
2023/06/13 03:03:38;;;;;;;0.50;0.50;;;;;;;19.54;100.00;98900.84;5071564;28;20203;-67
2023/06/13 03:06:05;;;;;;;0.80;0.80;;;;;;;19.44;100.00;98905.09;5072405;28;20208;-67
2023/06/13 03:08:34;;;;;;;0.57;0.57;;;;;;;19.26;100.00;98877.81;5072000;28;20211;-67
2023/06/13 03:11:00;;;;;;;0.50;0.50;;;;;;;19.31;100.00;98909.50;5072368;28;20214;-67
2023/06/13 03:13:28;;;;;;;0.50;0.50;;;;;;;19.25;100.00;98908.19;5071161;28;20644;-67
2023/06/13 03:15:56;;;;;;;0.50;0.50;;;;;;;19.16;100.00;98915.81;5071373;28;20226;-67
2023/06/13 03:18:23;;;;;;;0.40;0.40;;;;;;;19.04;100.00;98912.31;5072647;28;20201;-67
2023/06/13 03:20:50;;;;;;;0.50;0.50;;;;;;;18.93;100.00;98909.69;5071388;28;20595;-67
2023/06/13 03:23:17;;;;;;;0.40;0.40;;;;;;;18.87;100.00;98915.28;5071229;28;20295;-67
2023/06/13 03:25:46;;;;;;;0.50;0.50;;;;;;;18.78;100.00;98906.41;5072114;28;20199;-67
2023/06/13 03:28:13;;;;;;;0.73;0.73;;;;;;;18.72;100.00;98912.03;5071043;28;20231;-67
2023/06/13 03:30:40;;;;;;;0.57;0.57;;;;;;;18.60;100.00;98897.34;5071070;28;20238;-67
2023/06/13 03:33:06;;;;;;;0.40;0.40;;;;;;;18.61;100.00;98908.56;5071685;28;20230;-67
2023/06/13 03:35:34;;;;;;;1.00;1.00;;;;;;;18.58;100.00;98901.78;5071175;28;20204;-67
2023/06/13 03:38:01;;;;;;;0.53;0.53;;;;;;;18.64;100.00;98909.13;5071750;28;21347;-67
2023/06/13 03:40:28;;;;;;;0.97;0.97;;;;;;;18.64;100.00;98914.34;5071641;28;20223;-67
2023/06/13 03:42:56;;;;;;;0.80;0.80;;;;;;;18.64;100.00;98913.53;5071024;28;20250;-67
2023/06/13 03:45:25;;;;;;;0.40;0.40;;;;;;;18.49;100.00;98896.38;5071861;28;20665;-67
2023/06/13 03:47:52;;;;;;;0.43;0.43;;;;;;;18.65;100.00;98913.41;5071950;28;20205;-67
2023/06/13 03:50:19;;;;;;;0.60;0.60;;;;;;;18.65;100.00;98908.22;5069520;28;20263;-67
2023/06/13 03:52:45;;;;;;;0.53;0.53;;;;;;;18.53;100.00;98901.31;5071652;28;20246;-67
2023/06/13 03:55:13;;;;;;;0.50;0.50;;;;;;;18.61;100.00;98898.97;5070673;28;20197;-67
2023/06/13 03:57:40;;;;;;;0.57;0.57;;;;;;;18.68;100.00;98927.94;5071501;28;20200;-67
2023/06/13 04:00:10;;;;;;;0.87;0.87;;;;;;;18.70;100.00;98923.47;5065195;28;20212;-67
2023/06/13 04:02:37;;;;;;;0.70;0.70;;;;;;;18.75;100.00;98923.97;5070810;28;20204;-67
2023/06/13 04:05:06;;;;;;;0.50;0.50;;;;;;;18.81;100.00;98926.97;5067285;28;20579;-67
2023/06/13 04:07:34;;;;;;;0.60;0.60;;;;;;;18.88;100.00;98928.19;5067310;28;20201;-67
2023/06/13 04:10:01;;;;;;;0.40;0.40;;;;;;;18.91;100.00;98934.09;5068643;28;20301;-67
2023/06/13 04:12:29;;;;;;;0.50;0.50;;;;;;;18.93;100.00;98930.47;5069721;28;20283;-67
2023/06/13 04:14:56;;;;;;;0.63;0.63;;;;;;;18.91;100.00;98940.13;5071355;28;20196;-67
2023/06/13 04:17:24;;;;;;;0.50;0.50;;;;;;;19.00;100.00;98936.84;5070962;28;20220;-67
2023/06/13 04:19:51;;;;;;;0.30;0.30;;;;;;;19.03;100.00;98936.63;5068810;28;20592;-67
2023/06/13 04:22:18;;;;;;;0.60;0.60;;;;;;;19.03;100.00;98928.03;5069186;28;20204;-67
2023/06/13 04:24:45;;;;;;;0.90;0.90;;;;;;;19.00;100.00;98946.44;5071073;28;20338;-67
2023/06/13 04:27:13;;;;;;;0.90;0.90;;;;;;;19.05;100.00;98944.34;5071168;28;20229;-68
2023/06/13 04:29:43;;;;;;;0.60;0.60;;;;;;;18.92;100.00;98940.97;5070677;28;20204;-68
2023/06/13 04:32:13;;;;;;;0.50;0.50;;;;;;;19.06;100.00;98951.19;5070162;28;20209;-67
2023/06/13 04:34:44;;;;;;;0.40;0.40;;;;;;;19.12;100.00;98951.59;5070226;28;20216;-67
2023/06/13 04:37:13;;;;;;;0.37;0.37;;;;;;;19.10;100.00;98957.81;5068377;28;20205;-67
2023/06/13 04:39:40;;;;;;;0.60;0.60;;;;;;;19.04;100.00;98959.09;5064831;28;20220;-68
2023/06/13 04:42:07;;;;;;;0.63;0.63;;;;;;;19.02;100.00;98949.75;5070300;28;20198;-68
2023/06/13 04:44:35;;;;;;;0.40;0.40;;;;;;;19.09;100.00;98950.97;5070430;28;20210;-67
2023/06/13 04:47:02;;;;;;;0.70;0.70;;;;;;;19.13;100.00;98947.19;5069676;28;20205;-67
2023/06/13 04:49:30;;;;;;;0.53;0.53;;;;;;;19.12;100.00;98967.19;5070081;28;20223;-68
2023/06/13 04:51:59;;;;;;;0.40;0.40;;;;;;;19.19;100.00;98964.97;5070338;28;20296;-67
2023/06/13 04:54:26;;;;;;;0.40;0.40;;;;;;;19.27;100.00;98957.44;5069556;28;20230;-67
2023/06/13 04:56:54;;;;;;;0.40;0.40;;;;;;;19.16;100.00;98958.19;5070241;28;20646;-67
2023/06/13 04:59:21;;;;;;;0.63;0.63;;;;;;;19.20;100.00;98970.03;5070280;28;20201;-67
2023/06/13 05:01:49;;;;;;;0.70;0.70;;;;;;;19.28;100.00;98965.13;5066563;28;20245;-67
2023/06/13 05:04:16;;;;;;;0.60;0.60;;;;;;;19.31;100.00;98971.88;5066473;28;20567;-67
2023/06/13 05:06:42;;;;;;;0.60;0.60;;;;;;;19.44;100.00;98977.03;5068144;28;20213;-67
2023/06/13 05:09:13;;;;;;;0.50;0.50;;;;;;;19.45;100.00;98974.31;5069842;28;20208;-68
2023/06/13 05:11:41;;;;;;;0.60;0.60;;;;;;;19.51;100.00;98976.50;5068098;28;20202;-68
2023/06/13 05:14:07;;;;;;;0.50;0.50;;;;;;;19.53;100.00;98972.00;5065402;28;20209;-67
2023/06/13 05:16:35;;;;;;;0.70;0.70;;;;;;;19.50;100.00;98979.19;5069232;28;20216;-69
2023/06/13 05:19:02;;;;;;;0.43;0.43;;;;;;;19.64;100.00;98974.66;5069703;28;20206;-69
2023/06/13 05:21:30;;;;;;;0.53;0.53;;;;;;;19.75;100.00;98972.06;5066021;28;20227;-69
2023/06/13 05:23:58;;;;;;;0.40;0.40;;;;;;;19.79;100.00;98972.66;5067228;28;20300;-69
2023/06/13 05:26:27;;;;;;;0.40;0.40;;;;;;;19.89;100.00;98984.88;5067455;28;20252;-68
2023/06/13 05:28:54;;;;;;;0.43;0.43;;;;;;;19.84;100.00;98979.16;5067148;28;20253;-69
2023/06/13 05:31:21;;;;;;;0.60;0.60;;;;;;;19.86;100.00;98984.28;5067876;28;20302;-69
2023/06/13 05:33:48;;;;;;;0.50;0.50;;;;;;;19.85;100.00;98991.25;5066604;28;20601;-68
2023/06/13 05:36:15;;;;;;;0.60;0.60;;;;;;;19.95;100.00;98977.53;5061317;28;20214;-69
2023/06/13 05:38:42;;;;;;;0.67;0.67;;;;;;;20.08;100.00;98993.91;5064705;28;20206;-68
2023/06/13 05:41:08;;;;;;;0.30;0.30;;;;;;;20.08;100.00;98986.09;5066591;28;20225;-69
2023/06/13 05:43:37;;;;;;;0.43;0.43;;;;;;;20.04;100.00;98995.06;5067340;28;20207;-68
2023/06/13 05:46:03;;;;;;;0.40;0.40;;;;;;;20.07;100.00;99008.69;5067864;28;20281;-69
2023/06/13 05:48:30;;;;;;;0.50;0.50;;;;;;;20.21;100.00;98998.06;5068535;28;20207;-68
2023/06/13 05:50:57;;;;;;;0.50;0.50;;;;;;;20.27;100.00;98994.19;5067465;28;20580;-68
2023/06/13 05:53:24;;;;;;;0.40;0.40;;;;;;;20.27;100.00;99002.00;5068623;28;20934;-68
2023/06/13 05:55:50;;;;;;;0.40;0.40;;;;;;;20.29;100.00;99002.72;5063821;28;20631;-69
2023/06/13 05:58:17;;;;;;;0.60;0.60;;;;;;;20.20;100.00;99003.38;5068893;28;20211;-68
2023/06/13 06:00:45;;;;;;;0.50;0.50;;;;;;;20.46;100.00;99006.63;5067446;28;20227;-68
2023/06/13 06:03:13;;;;;;;0.97;0.97;;;;;;;20.71;100.00;99002.00;5071382;28;20210;-71
2023/06/13 06:05:40;;;;;;;0.57;0.57;;;;;;;20.79;100.00;99002.25;5067547;28;20284;-69
2023/06/13 06:08:07;;;;;;;1.20;1.20;;;;;;;20.82;100.00;99002.00;5070622;28;20203;-69
2023/06/13 06:10:34;;;;;;;0.40;0.40;;;;;;;20.77;100.00;99008.53;5071535;28;20205;-67
2023/06/13 06:13:01;;;;;;;0.53;0.53;;;;;;;20.55;100.00;98998.94;5071340;28;20685;-68
2023/06/13 06:15:27;;;;;;;0.40;0.40;;;;;;;20.37;100.00;99002.97;5071882;28;20205;-67
2023/06/13 06:17:55;;;;;;;0.50;0.50;;;;;;;20.44;100.00;98996.34;5071789;28;20253;-67
2023/06/13 06:20:22;;;;;;;0.50;0.50;;;;;;;20.45;100.00;99005.81;5072521;28;20219;-67
2023/06/13 06:22:49;;;;;;;0.93;0.93;;;;;;;20.37;100.00;99002.97;5068882;28;20207;-67
2023/06/13 06:25:19;;;;;;;0.53;0.53;;;;;;;20.38;100.00;98992.44;5070881;28;20200;-67
2023/06/13 06:27:46;;;;;;;0.60;0.60;;;;;;;20.49;100.00;98996.81;5071599;28;20231;-68
2023/06/13 06:30:14;;;;;;;1.33;1.33;;;;;;;20.55;100.00;98991.13;5073130;28;20605;-67
2023/06/13 06:32:42;;;;;;;0.50;0.50;;;;;;;20.65;100.00;99004.25;5071160;28;20208;-67
2023/06/13 06:35:11;;;;;;;0.60;0.60;;;;;;;20.70;100.00;99002.97;5070917;28;20647;-67
2023/06/13 06:37:37;;;;;;;0.40;0.40;;;;;;;20.78;100.00;98999.75;5067504;28;20205;-67
2023/06/13 06:40:06;;;;;;;0.83;0.83;;;;;;;20.98;100.00;99000.78;5067476;28;20223;-66
2023/06/13 06:42:33;;;;;;;0.50;0.50;;;;;;;21.16;100.00;99002.81;5070920;28;20217;-66
2023/06/13 06:44:59;;;;;;;0.57;0.57;;;;;;;21.22;100.00;98998.91;5070143;28;20299;-67
2023/06/13 06:47:26;;;;;;;0.73;0.73;;;;;;;21.25;100.00;98998.66;5068648;28;20203;-66
2023/06/13 06:49:53;;;;;;;0.47;0.47;;;;;;;21.54;100.00;98998.91;5070106;28;20203;-67
2023/06/13 06:52:21;;;;;;;0.43;0.43;;;;;;;21.79;100.00;98999.38;5071686;28;20203;-68
2023/06/13 06:54:48;;;;;;;0.60;0.60;;;;;;;21.97;100.00;98987.44;5071539;28;20208;-67
2023/06/13 06:57:15;;;;;;;0.43;0.43;;;;;;;22.14;100.00;98996.47;5069491;28;20196;-67
2023/06/13 06:59:42;;;;;;;0.90;0.90;;;;;;;22.28;100.00;99005.75;5071292;28;20200;-67
2023/06/13 07:02:08;;;;;;;0.87;0.87;;;;;;;22.57;100.00;99006.72;5070487;28;20216;-67
2023/06/13 07:04:35;;;;;;;1.03;1.03;;;;;;;22.84;100.00;99004.38;5071401;28;20261;-68
2023/06/13 07:07:02;;;;;;;0.47;0.47;;;;;;;22.79;100.00;98998.72;5071056;28;20212;-68
2023/06/13 07:09:30;;;;;;;0.30;0.30;;;;;;;23.04;100.00;98997.41;5071227;28;20231;-68
2023/06/13 07:11:57;;;;;;;0.50;0.50;;;;;;;22.92;100.00;99001.94;5070014;28;20614;-67
2023/06/13 07:14:25;;;;;;;0.40;0.40;;;;;;;23.18;100.00;99006.66;5067904;28;20491;-67
2023/06/13 07:16:54;;;;;;;0.77;0.77;;;;;;;23.18;100.00;99006.66;5066918;28;20299;-67
2023/06/13 07:19:20;;;;;;;0.30;0.30;;;;;;;23.07;100.00;98998.94;5071899;28;20200;-67
2023/06/13 07:21:47;;;;;;;0.30;0.30;;;;;;;23.30;100.00;99000.34;5072316;28;20247;-67
2023/06/13 07:24:14;;;;;;;0.57;0.57;;;;;;;23.55;100.00;98996.41;5071176;28;20565;-67
2023/06/13 07:26:42;;;;;;;0.50;0.50;;;;;;;23.71;100.00;99005.38;5070769;28;20204;-68
2023/06/13 07:29:09;;;;;;;0.57;0.57;;;;;;;23.77;100.00;99004.81;5065678;28;20228;-68
2023/06/13 07:31:37;;;;;;;0.30;0.30;;;;;;;23.82;100.00;98999.13;5071015;28;20286;-69
2023/06/13 07:34:04;;;;;;;0.30;0.30;;;;;;;23.91;96.59;99006.97;5071991;28;20275;-68
2023/06/13 07:36:32;;;;;;;0.30;0.30;;;;;;;23.78;96.83;99006.44;5070852;28;20203;-68
2023/06/13 07:38:58;;;;;;;0.37;0.37;;;;;;;23.79;97.87;99008.09;5070930;28;20734;-68
2023/06/13 07:41:26;;;;;;;0.67;0.67;;;;;;;24.01;100.00;98996.50;5071017;28;20219;-69
2023/06/13 07:43:54;;;;;;;0.30;0.30;;;;;;;24.22;96.86;99004.22;5069397;28;20200;-68
2023/06/13 07:46:21;;;;;;;0.30;0.30;;;;;;;24.39;96.79;99006.09;5069674;28;20697;-64
2023/06/13 07:48:48;;;;;;;0.30;0.30;;;;;;;24.51;96.19;99004.94;5072251;28;20650;-65
2023/06/13 07:51:15;;;;;;;0.50;0.50;;;;;;;24.69;93.86;99007.63;5072408;28;20200;-65
2023/06/13 07:53:42;;;;;;;0.30;0.30;;;;;;;24.94;92.58;99013.03;5071297;28;20253;-65
2023/06/13 07:56:08;;;;;;;0.60;0.60;;;;;;;24.91;88.35;99017.78;5072047;28;20204;-67
2023/06/13 07:58:35;;;;;;;0.40;0.40;;;;;;;24.86;90.99;99015.59;5070938;28;20745;-67
2023/06/13 08:01:04;;;;;;;0.40;0.40;;;;;;;24.77;91.49;99010.34;5068350;28;20277;-67
2023/06/13 08:03:31;;;;;;;0.40;0.40;;;;;;;24.82;91.81;99018.63;5067992;28;20294;-67
2023/06/13 08:05:58;;;;;;;0.87;0.87;;;;;;;24.93;88.49;99015.84;5069712;28;20215;-67
2023/06/13 08:08:25;;;;;;;0.30;0.30;;;;;;;25.00;87.91;99007.25;5070421;28;20261;-67
2023/06/13 08:10:52;;;;;;;0.30;0.30;;;;;;;25.07;88.56;99005.66;5067069;28;20203;-67
2023/06/13 08:13:19;;;;;;;0.30;0.30;;;;;;;25.23;88.94;99020.78;5067118;28;20216;-67
2023/06/13 08:15:46;;;;;;;0.27;0.27;;;;;;;25.47;87.62;99014.94;5058529;28;20740;-67
2023/06/13 08:18:14;;;;;;;0.43;0.33;;;;;;;25.46;87.12;99002.78;5057660;28;20199;-67
2023/06/13 08:20:41;;;;;;;0.40;0.40;;;;;;;25.61;86.47;99005.72;5063757;28;20219;-67
2023/06/13 08:23:08;;;;;;;0.40;0.40;;;;;;;25.54;85.82;99011.59;5063031;28;20208;-67
2023/06/13 08:25:34;;;;;;;0.60;0.60;;;;;;;25.57;85.33;99011.28;5063215;28;20588;-66
2023/06/13 08:28:01;;;;;;;0.57;0.57;;;;;;;25.53;86.83;98998.59;5061614;28;20220;-67
2023/06/13 08:30:28;;;;;;;0.53;0.37;;;;;;;25.84;85.59;99002.50;5061401;28;20713;-68
2023/06/13 08:32:55;;;;;;;0.43;0.43;;;;;;;25.87;82.82;99002.19;5059157;28;20207;-67
2023/06/13 08:35:23;;;;;;;0.30;0.30;;;;;;;25.55;83.18;99002.75;5057622;28;20258;-67
2023/06/13 08:37:50;;;;;;;0.33;0.33;;;;;;;25.47;83.52;98999.19;5060561;28;20207;-66
2023/06/13 08:40:19;;;;;;;0.50;0.50;;;;;;;25.42;83.20;98997.03;5062898;28;20207;-67
2023/06/13 08:42:46;;;;;;;0.60;0.60;;;;;;;25.16;83.28;98993.47;5062956;28;20196;-67
2023/06/13 08:45:14;;;;;;;0.33;0.33;;;;;;;25.21;85.46;98993.00;5069019;28;20335;-68
2023/06/13 08:47:46;;;;;;;0.37;0.37;;;;;;;25.31;85.81;98999.03;5071069;28;20227;-69
2023/06/13 08:50:14;;;;;;;0.50;0.50;;;;;;;25.61;84.45;98990.81;5069095;28;20207;-67
2023/06/13 08:52:45;;;;;;;0.30;0.30;;;;;;;25.33;85.77;98991.84;5068752;28;20234;-67
2023/06/13 08:55:14;;;;;;;0.53;0.53;;;;;;;25.32;85.15;98984.94;5066540;28;20226;-67
2023/06/13 08:57:42;;;;;;;0.50;0.50;;;;;;;25.13;87.70;98988.53;5069553;28;20200;-67
2023/06/13 09:00:11;;;;;;;0.33;0.33;;;;;;;25.31;87.73;98978.84;5066967;28;20667;-68
2023/06/13 09:02:43;;;;;;;0.43;0.43;;;;;;;25.22;83.61;98989.41;5069482;28;20281;-68
2023/06/13 09:05:13;;;;;;;0.30;0.30;;;;;;;25.07;84.35;98982.03;5070608;28;20291;-67
2023/06/13 09:07:42;;;;;;;0.70;0.70;;;;;;;25.18;87.72;98972.31;5070079;28;20206;-68
2023/06/13 09:10:10;;;;;;;0.40;0.40;;;;;;;25.22;82.78;98978.94;5066793;28;20218;-68
2023/06/13 09:12:37;;;;;;;0.30;0.30;;;;;;;25.39;84.29;98980.75;5070388;28;20200;-69
2023/06/13 09:15:05;;;;;;;0.40;0.40;;;;;;;25.68;87.43;98976.13;5071358;28;20283;-67
2023/06/13 09:17:32;;;;;;;0.60;0.40;;;;;;;25.94;88.28;98965.63;5070930;28;20219;-69
2023/06/13 09:19:59;;;;;;;0.47;0.47;;;;;;;26.01;82.71;98977.97;5069463;28;20196;-67
2023/06/13 09:22:26;;;;;;;0.60;0.60;;;;;;;26.14;81.90;98974.13;5071198;28;20223;-68
2023/06/13 09:24:56;;;;;;;0.30;0.30;;;;;;;26.21;80.13;98978.63;5065633;28;20207;-68
2023/06/13 09:27:23;;;;;;;0.50;0.50;;;;;;;26.27;78.45;98977.22;5065065;28;20240;-67
2023/06/13 09:29:51;;;;;;;0.37;0.37;;;;;;;26.29;81.69;98968.19;5069728;28;20261;-72
2023/06/13 09:32:19;;;;;;;0.20;0.20;;;;;;;26.60;82.25;98963.22;5070619;28;20568;-69
2023/06/13 09:34:49;;;;;;;0.20;0.20;;;;;;;26.37;76.38;98967.38;5065903;28;20200;-68
2023/06/13 09:37:16;;;;;;;0.50;0.50;;;;;;;26.26;78.28;98970.28;5068545;28;20561;-67
2023/06/13 09:39:50;;;;;;;0.70;0.70;;;;;;;26.42;80.71;98962.50;5068387;28;20236;-68
2023/06/13 09:42:21;;;;;;;0.30;0.30;;;;;;;26.71;79.37;98965.59;5068115;28;20698;-68
2023/06/13 09:44:48;;;;;;;0.40;0.40;;;;;;;26.46;75.84;98962.00;5069178;28;20575;-68
2023/06/13 09:47:22;;;;;;;0.60;0.60;;;;;;;26.36;76.15;98957.88;5063338;28;20671;-69
2023/06/13 09:49:52;;;;;;;0.87;0.80;;;;;;;26.40;76.46;98959.19;5064157;28;20568;-67
2023/06/13 09:52:23;;;;;;;0.50;0.50;;;;;;;26.36;75.66;98960.50;5066422;28;20196;-67
2023/06/13 09:54:51;;;;;;;0.23;0.23;;;;;;;26.29;77.33;98951.59;5066297;28;20262;-69
2023/06/13 09:57:19;;;;;;;0.33;0.33;;;;;;;26.66;76.30;98956.53;5067166;28;20227;-68
2023/06/13 09:59:47;;;;;;;0.30;0.30;;;;;;;26.78;73.84;98958.72;5065763;28;20208;-68
2023/06/13 10:02:14;;;;;;;0.60;0.60;;;;;;;26.87;77.44;98949.88;5067052;28;20310;-69
2023/06/13 10:04:41;;;;;;;0.30;0.30;;;;;;;27.00;74.09;98954.69;5069066;28;20253;-68
2023/06/13 10:07:08;;;;;;;0.53;0.53;;;;;;;27.06;73.04;98944.34;5069031;28;20200;-69
2023/06/13 10:09:35;;;;;;;0.40;0.40;;;;;;;27.01;74.92;98951.88;5065124;28;20200;-68
2023/06/13 10:12:06;;;;;;;0.40;0.40;;;;;;;26.98;74.48;98951.41;5065034;28;20800;-67
2023/06/13 10:14:38;;;;;;;0.60;0.60;;;;;;;27.01;72.58;98951.88;5066937;28;20253;-67
2023/06/13 10:17:11;;;;;;;0.50;0.50;;;;;;;27.07;72.56;98955.69;5066759;28;20211;-68
2023/06/13 10:19:40;;;;;;;0.40;0.40;;;;;;;27.35;76.07;98949.16;5068706;28;20204;-67
2023/06/13 10:22:09;;;;;;;0.40;0.40;;;;;;;27.29;76.03;98927.91;5068415;28;20596;-68
2023/06/13 10:24:37;;;;;;;0.43;0.43;;;;;;;27.32;70.31;98948.66;5069713;28;20207;-68
2023/06/13 10:27:07;;;;;;;0.37;0.37;;;;;;;27.14;72.36;98941.69;5064827;28;20201;-67
2023/06/13 10:30:06;;;;;;;0.40;0.40;;;;;;;26.77;73.63;98943.91;5069382;28;20698;-68
2023/06/13 10:32:57;;;;;;;0.40;0.40;;;;;;;26.59;73.84;98935.31;5066956;28;20222;-68
2023/06/13 10:35:45;;;;;;;0.40;0.40;;;;;;;26.58;72.87;98928.38;5067355;28;20257;-68
2023/06/13 10:38:48;;;;;;;0.50;0.50;;;;;;;26.49;73.08;98929.34;5066355;28;20231;-68
2023/06/13 10:41:52;;;;;;;0.30;0.30;;;;;;;26.45;72.56;98938.53;5068153;28;20590;-68
2023/06/13 10:44:25;;;;;;;0.40;0.40;;;;;;;26.25;73.07;98932.69;5067341;28;20259;-65
2023/06/13 10:46:54;;;;;;;0.97;0.97;;;;;;;26.31;73.24;98921.53;5069036;28;20845;-66
2023/06/13 10:49:21;;;;;;;0.40;0.40;;;;;;;26.45;73.83;98928.00;5071736;28;20245;-68
2023/06/13 10:51:48;;;;;;;0.50;0.50;;;;;;;26.49;71.52;98924.09;5071185;28;20733;-68
2023/06/13 10:54:17;;;;;;;0.37;0.37;;;;;;;26.55;72.17;98918.19;5070969;28;20614;-66
2023/06/13 10:56:44;;;;;;;0.53;0.53;;;;;;;26.90;75.41;98920.63;5070551;28;20200;-66
2023/06/13 10:59:12;;;;;;;0.53;0.53;;;;;;;26.55;72.49;98912.94;5068136;28;20214;-66
2023/06/13 11:01:40;;;;;;;0.37;0.37;;;;;;;26.53;73.89;98915.72;5071832;28;20220;-66
2023/06/13 11:04:13;;;;;;;0.60;0.60;;;;;;;26.63;73.12;98916.41;5072239;28;20204;-66
2023/06/13 11:06:41;;;;;;;0.40;0.40;;;;;;;26.62;72.68;98914.75;5073103;28;20625;-64
2023/06/13 11:09:18;;;;;;;0.40;0.40;;;;;;;26.76;71.83;98915.94;5073097;28;20629;-64
2023/06/13 11:11:50;;;;;;;0.40;0.40;;;;;;;26.83;71.09;98908.25;5071286;28;20196;-66
2023/06/13 11:14:20;;;;;;;0.50;0.50;;;;;;;27.02;74.79;98898.28;5072598;28;20261;-66
2023/06/13 11:16:46;;;;;;;0.30;0.30;;;;;;;27.09;71.28;98890.56;5066262;28;20207;-65
2023/06/13 11:19:16;;;;;;;0.47;0.47;;;;;;;26.99;69.84;98895.16;5071694;28;20211;-65
2023/06/13 11:21:47;;;;;;;0.30;0.30;;;;;;;26.92;71.68;98887.06;5071107;28;20224;-65
2023/06/13 11:24:17;;;;;;;0.40;0.40;;;;;;;27.03;71.28;98894.66;5070825;28;20270;-65
2023/06/13 11:26:44;;;;;;;0.30;0.30;;;;;;;27.33;74.62;98876.59;5071602;28;20204;-66
2023/06/13 11:29:12;;;;;;;0.50;0.50;;;;;;;27.70;72.09;98873.44;5070366;28;20203;-66
2023/06/13 11:31:40;;;;;;;0.80;0.80;;;;;;;27.76;68.72;98881.50;5071377;28;20199;-65
2023/06/13 11:34:18;;;;;;;0.43;0.43;;;;;;;27.66;66.39;98877.44;5070821;28;20310;-65